createdAt,value
2022-11-17T00:03:04.460Z,4.72
2022-11-17T00:07:08.074Z,5.63
2022-11-17T00:11:13.124Z,6.97
2022-11-17T00:15:16.793Z,5.97
2022-11-17T00:19:37.602Z,6.68
2022-11-17T00:23:50.713Z,6.65
2022-11-17T00:27:55.470Z,6.10
2022-11-17T00:36:08.487Z,7.43
2022-11-17T00:40:13.250Z,7.45
2022-11-17T00:44:18.808Z,6.90
2022-11-17T00:48:21.766Z,7.10
2022-11-17T00:52:25.328Z,6.65
2022-11-17T00:56:29.522Z,7.30
2022-11-17T01:00:34.169Z,6.90
2022-11-17T01:04:37.836Z,7.47
2022-11-17T01:08:41.299Z,7.28
2022-11-17T01:12:44.362Z,7.20
2022-11-17T01:16:49.786Z,6.68
2022-11-17T01:20:53.112Z,7.60
2022-11-17T01:24:56.140Z,8.77
2022-11-17T01:29:01.013Z,7.20
2022-11-17T01:33:06.154Z,7.53
2022-11-17T01:37:21.598Z,6.30
2022-11-17T01:41:26.965Z,6.30
2022-11-17T01:45:30.518Z,6.47
2022-11-17T01:49:35.288Z,6.90
2022-11-17T01:53:39.658Z,6.22
2022-11-17T01:57:49.011Z,6.18
2022-11-17T02:01:57.203Z,5.72
2022-11-17T02:06:07.842Z,5.40
2022-11-17T02:10:11.001Z,6.93
2022-11-17T02:14:14.887Z,6.03
2022-11-17T02:18:18.811Z,7.15
2022-11-17T02:22:55.550Z,7.10
2022-11-17T02:27:37.708Z,7.28
2022-11-17T02:31:47.787Z,5.82
2022-11-17T02:35:57.014Z,7.43
2022-11-17T02:40:05.574Z,6.55
2022-11-17T02:44:14.371Z,5.22
2022-11-17T02:48:24.225Z,6.65
2022-11-17T02:52:29.372Z,6.32
2022-11-17T02:56:32.364Z,8.93
2022-11-17T03:00:45.586Z,7.78
2022-11-17T03:05:02.020Z,8.52
2022-11-17T03:09:21.710Z,8.48
2022-11-17T03:13:32.751Z,8.85
2022-11-17T03:17:48.186Z,9.23
2022-11-17T03:21:58.242Z,8.60
2022-11-17T03:26:04.263Z,9.20
2022-11-17T03:30:09.706Z,7.78
2022-11-17T03:34:19.127Z,8.30
2022-11-17T03:38:28.616Z,9.63
2022-11-17T03:42:35.957Z,6.60
2022-11-17T03:51:10.636Z,9.20
2022-11-17T03:55:15.264Z,10.63
2022-11-17T03:59:24.193Z,11.10
2022-11-17T04:03:31.811Z,9.73
2022-11-17T04:07:40.683Z,9.43
2022-11-17T04:12:00.996Z,9.63
2022-11-17T04:16:04.597Z,9.60
2022-11-17T04:20:09.255Z,9.25
2022-11-17T04:24:14.456Z,8.38
2022-11-17T04:28:34.855Z,6.35
2022-11-17T04:32:38.760Z,8.93
2022-11-17T04:36:46.514Z,7.78
2022-11-17T04:41:05.377Z,8.68
2022-11-17T04:45:09.575Z,8.50
2022-11-17T04:49:13.595Z,9.32
2022-11-17T04:53:16.584Z,7.88
2022-11-17T04:57:21.420Z,9.15
2022-11-17T05:01:27.819Z,9.35
2022-11-17T05:05:31.420Z,8.63
2022-11-17T05:09:34.578Z,9.30
2022-11-17T05:13:38.603Z,9.25
2022-11-17T05:17:41.805Z,8.82
2022-11-17T05:21:45.608Z,9.25
2022-11-17T05:25:48.948Z,9.38
2022-11-17T05:29:53.711Z,6.88
2022-11-17T05:33:57.101Z,8.90
2022-11-17T05:38:00.609Z,7.60
2022-11-17T05:42:03.705Z,7.35
2022-11-17T05:46:08.742Z,7.47
2022-11-17T05:50:11.994Z,8.57
2022-11-17T05:54:15.691Z,7.82
2022-11-17T05:58:23.828Z,11.57
2022-11-17T06:02:33.579Z,11.15
2022-11-17T06:06:38.885Z,12.70
2022-11-17T06:10:42.602Z,8.30
2022-11-17T06:14:46.639Z,10.18
2022-11-17T06:18:55.195Z,9.68
2022-11-17T06:23:02.195Z,10.43
2022-11-17T06:27:05.968Z,8.65
2022-11-17T06:31:09.635Z,10.77
2022-11-17T06:35:16.717Z,9.95
2022-11-17T06:39:20.180Z,7.80
2022-11-17T06:43:23.634Z,10.98
2022-11-17T06:47:27.186Z,8.80
2022-11-17T06:51:31.677Z,9.38
2022-11-17T06:55:35.890Z,9.32
2022-11-17T06:59:39.402Z,10.00
2022-11-17T07:03:44.034Z,9.52
2022-11-17T07:07:49.023Z,12.00
2022-11-17T07:11:52.612Z,9.23
2022-11-17T07:15:55.693Z,11.38
2022-11-17T07:19:59.247Z,9.98
2022-11-17T07:24:03.733Z,10.85
2022-11-17T07:28:06.997Z,10.40
2022-11-17T07:32:14.743Z,9.80
2022-11-17T07:36:18.149Z,9.27
2022-11-17T07:40:23.063Z,13.65
2022-11-17T07:44:26.463Z,14.27
2022-11-17T07:48:29.949Z,9.73
2022-11-17T07:52:37.248Z,21.35
2022-11-17T07:56:45.851Z,14.52
2022-11-17T08:00:49.566Z,10.10
2022-11-17T08:04:53.333Z,8.13
2022-11-17T08:08:57.176Z,9.23
2022-11-17T08:13:02.616Z,10.32
2022-11-17T08:17:06.161Z,14.77
2022-11-17T08:21:10.673Z,12.18
2022-11-17T08:25:14.412Z,10.60
2022-11-17T08:29:18.859Z,23.92
2022-11-17T08:33:22.072Z,14.13
2022-11-17T08:37:25.173Z,11.65
2022-11-17T08:41:28.729Z,10.23
2022-11-17T08:45:33.538Z,9.52
2022-11-17T08:49:37.122Z,10.02
2022-11-17T08:53:41.573Z,9.63
2022-11-17T08:57:45.521Z,9.73
2022-11-17T09:01:49.930Z,9.02
2022-11-17T09:05:53.675Z,7.82
2022-11-17T09:10:00.464Z,8.43
2022-11-17T09:14:04.170Z,8.63
2022-11-17T09:18:08.612Z,7.30
2022-11-17T09:22:12.152Z,6.30
2022-11-17T09:26:17.202Z,7.95
2022-11-17T09:30:22.786Z,6.25
2022-11-17T09:34:27.706Z,7.70
2022-11-17T09:38:31.311Z,8.23
2022-11-17T09:42:40.511Z,7.32
2022-11-17T09:46:56.880Z,6.97
2022-11-17T09:51:03.286Z,7.88
2022-11-17T09:55:20.432Z,6.90
2022-11-17T09:59:27.268Z,6.35
2022-11-17T10:03:37.555Z,6.80
2022-11-17T10:07:50.963Z,7.47
2022-11-17T10:11:56.070Z,7.88
2022-11-17T10:16:04.141Z,7.18
2022-11-17T10:20:16.992Z,7.30
2022-11-17T10:28:41.322Z,7.28
2022-11-17T10:32:51.340Z,7.05
2022-11-17T10:36:55.031Z,7.53
2022-11-17T10:41:03.168Z,8.00
2022-11-17T10:45:08.122Z,7.40
2022-11-17T10:49:26.128Z,6.68
2022-11-17T10:53:44.931Z,6.05
2022-11-17T10:57:53.282Z,7.70
2022-11-17T11:01:56.759Z,8.10
2022-11-17T11:06:22.765Z,6.38
2022-11-17T11:10:33.390Z,7.32
2022-11-17T11:14:42.092Z,6.55
2022-11-17T11:18:46.351Z,6.90
2022-11-17T11:22:58.614Z,6.47
2022-11-17T11:27:11.033Z,7.75
2022-11-17T11:31:29.734Z,6.82
2022-11-17T11:35:57.012Z,6.43
2022-11-17T11:40:11.306Z,5.43
2022-11-17T11:44:32.775Z,5.72
2022-11-17T11:48:41.786Z,5.38
2022-11-17T11:52:50.247Z,5.53
2022-11-17T11:56:55.394Z,5.60
2022-11-17T12:01:06.369Z,4.78
2022-11-17T12:05:20.532Z,4.75
2022-11-17T12:09:48.315Z,4.85
2022-11-17T12:13:54.464Z,4.47
2022-11-17T12:18:01.652Z,4.20
2022-11-17T12:22:06.904Z,4.72
2022-11-17T12:26:23.593Z,6.55
2022-11-17T12:30:54.624Z,5.60
2022-11-17T12:35:26.576Z,5.63
2022-11-17T12:40:10.284Z,5.82
2022-11-17T12:44:50.374Z,5.88
2022-11-17T12:49:06.694Z,5.93
2022-11-17T12:53:25.755Z,4.90
2022-11-17T12:57:33.757Z,4.30
2022-11-17T13:01:46.139Z,4.40
2022-11-17T13:06:33.655Z,4.38
2022-11-17T13:10:33.365Z,5.40
2022-11-17T13:14:38.979Z,3.95
2022-11-17T13:18:44.790Z,4.32
2022-11-17T13:23:00.602Z,5.70
2022-11-17T13:27:07.490Z,4.35
2022-11-17T13:31:15.089Z,4.07
2022-11-17T13:35:23.577Z,3.35
2022-11-17T13:39:28.692Z,5.03
2022-11-17T13:43:40.450Z,5.30
2022-11-17T13:47:47.453Z,4.50
2022-11-17T13:51:52.472Z,4.55
2022-11-17T13:55:56.308Z,4.75
2022-11-17T14:00:03.508Z,5.10
2022-11-17T14:04:27.235Z,5.22
2022-11-17T14:08:34.248Z,4.85
2022-11-17T14:12:38.905Z,4.85
2022-11-17T14:16:43.855Z,4.88
2022-11-17T14:20:47.134Z,5.50
2022-11-17T14:24:52.363Z,4.35
2022-11-17T14:29:02.114Z,5.25
2022-11-17T14:33:12.119Z,6.70
2022-11-17T14:37:16.905Z,6.22
2022-11-17T14:41:22.668Z,5.45
2022-11-17T14:45:25.764Z,5.32
2022-11-17T14:49:29.446Z,5.80
2022-11-17T14:53:32.525Z,6.63
2022-11-17T14:57:38.704Z,5.35
2022-11-17T15:01:43.005Z,6.15
2022-11-17T15:05:47.260Z,5.65
2022-11-17T15:09:50.702Z,6.65
2022-11-17T15:13:55.444Z,6.75
2022-11-17T15:17:58.536Z,6.97
2022-11-17T15:22:01.696Z,6.28
2022-11-17T15:26:06.741Z,6.97
2022-11-17T15:30:12.546Z,5.95
2022-11-17T15:34:19.987Z,7.00
2022-11-17T15:38:23.445Z,6.50
2022-11-17T15:42:27.129Z,6.75
2022-11-17T15:46:31.573Z,8.15
2022-11-17T15:50:35.176Z,7.97
2022-11-17T15:54:38.367Z,7.50
2022-11-17T15:58:42.847Z,6.65
2022-11-17T16:02:47.991Z,7.78
2022-11-17T16:06:51.268Z,7.30
2022-11-17T16:10:54.395Z,8.10
2022-11-17T16:14:57.616Z,7.25
2022-11-17T16:19:02.805Z,7.53
2022-11-17T16:23:06.335Z,6.75
2022-11-17T16:27:13.230Z,9.13
2022-11-17T16:31:18.348Z,8.00
2022-11-17T16:35:22.882Z,7.88
2022-11-17T16:39:26.413Z,6.57
2022-11-17T16:43:29.594Z,7.32
2022-11-17T16:47:35.248Z,6.85
2022-11-17T16:51:39.995Z,7.18
2022-11-17T16:55:43.506Z,7.18
2022-11-17T16:59:47.019Z,8.05
2022-11-17T17:03:50.312Z,9.07
2022-11-17T17:07:55.284Z,8.07
2022-11-17T17:11:58.925Z,8.05
2022-11-17T17:16:04.401Z,8.57
2022-11-17T17:20:09.457Z,8.30
2022-11-17T17:24:15.379Z,8.65
2022-11-17T17:28:18.690Z,7.35
2022-11-17T17:32:22.209Z,8.68
2022-11-17T17:36:26.364Z,8.45
2022-11-17T17:40:31.987Z,9.27
2022-11-17T17:44:35.664Z,8.65
2022-11-17T17:48:40.516Z,10.10
2022-11-17T17:52:44.188Z,9.68
2022-11-17T17:56:50.016Z,8.20
2022-11-17T18:00:53.986Z,9.18
2022-11-17T18:04:58.172Z,7.63
2022-11-17T18:09:01.445Z,9.10
2022-11-17T18:13:10.628Z,8.98
2022-11-17T18:17:14.667Z,8.48
2022-11-17T18:21:20.592Z,8.75
2022-11-17T18:25:24.188Z,8.57
2022-11-17T18:29:29.291Z,9.18
2022-11-17T18:33:34.944Z,6.88
2022-11-17T18:37:38.574Z,9.27
2022-11-17T18:41:42.221Z,7.97
2022-11-17T18:45:47.949Z,9.02
2022-11-17T18:49:51.554Z,9.32
2022-11-17T18:54:00.602Z,9.35
2022-11-17T18:58:14.426Z,8.50
2022-11-17T19:02:20.231Z,9.38
2022-11-17T19:06:28.331Z,9.38
2022-11-17T19:10:32.705Z,8.63
2022-11-17T19:14:36.935Z,7.55
2022-11-17T19:18:42.486Z,12.40
2022-11-17T19:22:46.399Z,17.75
2022-11-17T19:26:51.241Z,10.65
2022-11-17T19:30:54.810Z,10.02
2022-11-17T19:35:11.832Z,9.10
2022-11-17T19:39:21.561Z,9.32
2022-11-17T19:43:25.364Z,8.65
2022-11-17T19:47:29.573Z,7.35
2022-11-17T19:51:37.418Z,8.73
2022-11-17T19:55:40.778Z,8.15
2022-11-17T19:59:44.569Z,8.23
2022-11-17T20:03:49.158Z,9.85
2022-11-17T20:07:53.811Z,7.88
2022-11-17T20:11:57.832Z,8.98
2022-11-17T20:16:06.179Z,8.73
2022-11-17T20:20:13.787Z,9.43
2022-11-17T20:24:18.849Z,8.77
2022-11-17T20:28:22.314Z,7.93
2022-11-17T20:32:25.645Z,7.07
2022-11-17T20:36:33.608Z,8.40
2022-11-17T20:40:41.172Z,8.80
2022-11-17T20:44:45.337Z,8.10
2022-11-17T20:48:50.138Z,8.95
2022-11-17T20:52:53.964Z,8.35
2022-11-17T20:56:58.840Z,8.50
2022-11-17T21:01:10.168Z,9.75
2022-11-17T21:05:13.451Z,9.07
2022-11-17T21:09:17.322Z,7.60
2022-11-17T21:13:25.031Z,7.95
2022-11-17T21:17:45.290Z,12.95
2022-11-17T21:21:50.734Z,14.90
2022-11-17T21:25:53.894Z,7.78
2022-11-17T21:29:59.578Z,14.75
2022-11-17T21:34:04.410Z,12.13
2022-11-17T21:38:11.454Z,10.77
2022-11-17T21:42:18.225Z,10.85
2022-11-17T21:46:26.843Z,11.18
2022-11-17T21:50:30.247Z,11.82
2022-11-17T21:54:33.962Z,9.48
2022-11-17T21:58:37.796Z,7.65
2022-11-17T22:02:42.927Z,11.63
2022-11-17T22:06:46.649Z,9.30
2022-11-17T22:10:50.250Z,12.10
2022-11-17T22:14:53.551Z,10.05
2022-11-17T22:18:58.497Z,10.13
2022-11-17T22:23:01.764Z,10.75
2022-11-17T22:27:07.218Z,11.75
2022-11-17T22:31:11.227Z,12.05
2022-11-17T22:35:16.651Z,10.82
2022-11-17T22:39:20.023Z,11.50
2022-11-17T22:43:23.750Z,10.85
2022-11-17T22:47:27.068Z,9.38
2022-11-17T22:51:49.812Z,10.13
2022-11-17T22:55:53.090Z,10.02
2022-11-17T22:59:56.833Z,10.15
2022-11-17T23:04:00.237Z,7.53
2022-11-17T23:08:09.567Z,10.27
2022-11-17T23:12:13.163Z,11.25
2022-11-17T23:16:16.192Z,11.23
2022-11-17T23:20:21.134Z,10.93
2022-11-17T23:24:25.695Z,12.88
2022-11-17T23:28:28.867Z,9.98
2022-11-17T23:32:32.216Z,9.93
2022-11-17T23:36:35.913Z,9.15
2022-11-17T23:40:40.521Z,10.88
2022-11-17T23:44:44.485Z,9.52
2022-11-17T23:48:47.873Z,10.07
2022-11-17T23:52:51.515Z,8.13
2022-11-17T23:56:56.750Z,7.13
